createdAt,value
2022-08-10T00:00:39.289Z,101038.06
2022-08-10T00:03:07.864Z,101033.19
2022-08-10T00:05:43.394Z,101032.63
2022-08-10T00:08:22.565Z,101037.94
2022-08-10T00:10:53.691Z,101037.94
2022-08-10T00:13:22.959Z,101039.84
2022-08-10T00:15:54.854Z,101037.34
2022-08-10T00:18:34.413Z,101035.44
2022-08-10T00:21:06.075Z,101029.28
2022-08-10T00:23:34.636Z,101038.50
2022-08-10T00:26:04.798Z,101039.19
2022-08-10T00:28:32.853Z,101039.19
2022-08-10T00:31:00.846Z,101036.25
2022-08-10T00:33:28.985Z,101039.03
2022-08-10T00:35:56.971Z,101040.69
2022-08-10T00:38:25.015Z,101041.78
2022-08-10T00:40:52.951Z,101039.88
2022-08-10T00:43:23.276Z,101039.97
2022-08-10T00:45:59.178Z,101040.56
2022-08-10T00:48:29.417Z,101033.97
2022-08-10T00:50:58.564Z,101042.00
2022-08-10T00:53:27.077Z,101043.31
2022-08-10T00:57:07.870Z,101045.25
2022-08-10T00:58:44.920Z,101039.13
2022-08-10T01:02:09.435Z,101043.47
2022-08-10T01:04:40.278Z,101036.94
2022-08-10T01:07:00.035Z,101041.28
2022-08-10T01:09:34.758Z,101035.03
2022-08-10T01:12:39.223Z,101039.63
2022-08-10T01:15:08.643Z,101035.00
2022-08-10T01:17:50.338Z,101038.13
2022-08-10T01:20:30.312Z,101041.72
2022-08-10T01:23:46.330Z,101030.66
2022-08-10T01:26:41.238Z,101034.69
2022-08-10T01:29:22.034Z,101038.34
2022-08-10T01:31:54.780Z,101030.88
2022-08-10T01:34:28.368Z,101030.13
2022-08-10T01:37:03.081Z,101031.69
2022-08-10T01:39:38.773Z,101029.66
2022-08-10T01:42:08.254Z,101029.28
2022-08-10T01:44:40.762Z,101028.94
2022-08-10T01:47:31.365Z,101037.03
2022-08-10T01:50:04.625Z,101024.59
2022-08-10T01:52:33.924Z,101032.59
2022-08-10T01:55:02.435Z,101038.63
2022-08-10T01:57:34.230Z,101037.00
2022-08-10T02:00:03.756Z,101036.94
2022-08-10T02:02:39.007Z,101035.16
2022-08-10T02:05:08.626Z,101044.88
2022-08-10T02:07:38.992Z,101048.91
2022-08-10T02:10:11.875Z,101041.97
2022-08-10T02:12:42.220Z,101041.69
2022-08-10T02:15:16.261Z,101041.56
2022-08-10T02:17:58.092Z,101049.44
2022-08-10T02:20:35.459Z,101052.41
2022-08-10T02:23:08.413Z,101059.94
2022-08-10T02:25:41.099Z,101054.97
2022-08-10T02:28:27.098Z,101065.03
2022-08-10T02:31:01.784Z,101061.19
2022-08-10T02:33:37.214Z,101066.31
2022-08-10T02:36:07.747Z,101072.06
2022-08-10T02:38:58.028Z,101069.88
2022-08-10T02:45:14.971Z,101067.13
2022-08-10T02:45:23.752Z,101075.72
2022-08-10T02:47:22.582Z,101071.94
2022-08-10T02:50:03.046Z,101065.56
2022-08-10T02:52:37.332Z,101071.81
2022-08-10T02:55:17.506Z,101067.50
2022-08-10T02:58:12.680Z,101065.41
2022-08-10T03:00:45.402Z,101072.88
2022-08-10T03:03:19.899Z,101067.59
2022-08-10T03:05:54.313Z,101069.94
2022-08-10T03:08:27.043Z,101070.88
2022-08-10T03:10:57.400Z,101065.94
2022-08-10T03:13:26.158Z,101080.41
2022-08-10T03:15:55.364Z,101071.88
2022-08-10T03:18:25.550Z,101073.34
2022-08-10T03:20:57.123Z,101077.16
2022-08-10T03:23:26.953Z,101071.78
2022-08-10T03:25:58.138Z,101082.66
2022-08-10T03:28:29.356Z,101077.16
2022-08-10T03:30:59.315Z,101071.88
2022-08-10T03:33:32.133Z,101072.81
2022-08-10T03:36:40.194Z,101073.88
2022-08-10T03:38:51.745Z,101084.44
2022-08-10T03:41:24.945Z,101081.28
2022-08-10T03:43:54.527Z,101085.59
2022-08-10T03:46:25.644Z,101082.13
2022-08-10T03:48:56.848Z,101082.97
2022-08-10T03:51:26.539Z,101073.25
2022-08-10T03:54:05.387Z,101084.13
2022-08-10T03:56:37.823Z,101085.28
2022-08-10T03:59:07.467Z,101091.25
2022-08-10T04:02:46.060Z,101086.84
2022-08-10T04:04:25.447Z,101093.28
2022-08-10T04:06:56.800Z,101088.78
2022-08-10T04:09:43.301Z,101088.84
2022-08-10T04:12:16.412Z,101085.38
2022-08-10T04:14:51.365Z,101090.97
2022-08-10T04:18:04.481Z,101085.91
2022-08-10T04:20:17.911Z,101095.91
2022-08-10T04:22:50.941Z,101099.41
2022-08-10T04:25:20.490Z,101095.69
2022-08-10T04:27:49.478Z,101095.56
2022-08-10T04:30:17.502Z,101098.19
2022-08-10T04:32:48.760Z,101096.84
2022-08-10T04:35:20.025Z,101105.69
2022-08-10T04:37:50.665Z,101106.69
2022-08-10T04:40:29.080Z,101092.56
2022-08-10T04:43:03.371Z,101097.06
2022-08-10T04:45:47.403Z,101103.97
2022-08-10T04:48:40.665Z,101098.16
2022-08-10T04:51:11.171Z,101102.03
2022-08-10T04:54:05.224Z,101100.03
2022-08-10T04:56:34.597Z,101102.91
2022-08-10T04:59:05.610Z,101102.81
2022-08-10T05:02:09.858Z,101100.38
2022-08-10T05:04:37.604Z,101105.25
2022-08-10T05:07:09.121Z,101108.09
2022-08-10T05:10:01.016Z,101107.28
2022-08-10T05:12:27.896Z,101110.75
2022-08-10T05:14:56.102Z,101112.66
2022-08-10T05:17:24.955Z,101116.25
2022-08-10T05:20:03.718Z,101122.97
2022-08-10T05:22:38.758Z,101121.31
2022-08-10T05:25:10.927Z,101121.81
2022-08-10T05:27:39.374Z,101119.09
2022-08-10T05:30:08.910Z,101123.22
2022-08-10T05:32:57.639Z,101128.50
2022-08-10T05:35:25.852Z,101123.72
2022-08-10T05:38:09.593Z,101127.75
2022-08-10T05:40:46.974Z,101131.78
2022-08-10T05:43:17.759Z,101131.44
2022-08-10T05:46:18.285Z,101134.41
2022-08-10T05:48:54.048Z,101125.81
2022-08-10T05:51:25.323Z,101133.03
2022-08-10T05:54:02.200Z,101134.75
2022-08-10T05:56:53.890Z,101128.44
2022-08-10T06:00:30.732Z,101133.66
2022-08-10T06:02:32.754Z,101135.84
2022-08-10T06:05:11.568Z,101131.63
2022-08-10T06:07:43.832Z,101131.31
2022-08-10T06:10:29.985Z,101133.50
2022-08-10T06:13:26.929Z,101134.59
2022-08-10T06:15:59.956Z,101136.63
2022-08-10T06:18:28.410Z,101129.03
2022-08-10T06:20:57.326Z,101134.66
2022-08-10T06:23:27.343Z,101126.97
2022-08-10T06:26:09.751Z,101132.44
2022-08-10T06:28:58.218Z,101128.75
2022-08-10T06:31:48.265Z,101128.69
2022-08-10T06:34:22.654Z,101131.81
2022-08-10T06:36:53.090Z,101140.72
2022-08-10T06:39:39.394Z,101142.75
2022-08-10T06:42:17.598Z,101140.47
2022-08-10T06:44:55.579Z,101142.69
2022-08-10T06:47:27.651Z,101137.44
2022-08-10T06:50:01.663Z,101134.97
2022-08-10T06:52:35.031Z,101143.22
2022-08-10T06:55:08.257Z,101133.72
2022-08-10T06:57:40.147Z,101138.19
2022-08-10T07:00:11.116Z,101135.19
2022-08-10T07:02:45.953Z,101136.84
2022-08-10T07:05:20.987Z,101130.09
2022-08-10T07:07:52.633Z,101135.97
2022-08-10T07:10:26.321Z,101141.56
2022-08-10T07:13:16.405Z,101131.66
2022-08-10T07:16:09.339Z,101131.53
2022-08-10T07:18:38.397Z,101132.22
2022-08-10T07:21:09.427Z,101137.38
2022-08-10T07:23:56.830Z,101128.69
2022-08-10T07:26:30.006Z,101134.31
2022-08-10T07:28:59.216Z,101134.97
2022-08-10T07:31:54.534Z,101140.84
2022-08-10T07:34:29.075Z,101137.75
2022-08-10T07:37:02.008Z,101134.84
2022-08-10T07:40:02.061Z,101136.72
2022-08-10T07:42:22.704Z,101136.44
2022-08-10T07:44:52.167Z,101138.38
2022-08-10T07:47:52.322Z,101138.81
2022-08-10T07:50:20.136Z,101149.09
2022-08-10T07:52:50.346Z,101145.97
2022-08-10T07:56:04.146Z,101146.50
2022-08-10T07:58:10.702Z,101144.44
2022-08-10T08:00:40.370Z,101149.81
2022-08-10T08:03:13.339Z,101148.41
2022-08-10T08:06:02.917Z,101140.25
2022-08-10T08:08:33.303Z,101141.66
2022-08-10T08:11:02.646Z,101141.09
2022-08-10T08:13:31.723Z,101139.38
2022-08-10T08:16:16.720Z,101140.00
2022-08-10T08:19:03.739Z,101137.38
2022-08-10T08:24:06.972Z,101130.22
2022-08-10T08:24:32.806Z,101135.00
2022-08-10T08:27:02.968Z,101129.84
2022-08-10T08:29:34.275Z,101130.66
2022-08-10T08:32:03.997Z,101131.25
2022-08-10T08:34:35.398Z,101122.25
2022-08-10T08:37:05.382Z,101124.63
2022-08-10T08:39:35.993Z,101126.78
2022-08-10T08:42:35.414Z,101123.28
2022-08-10T08:45:15.910Z,101109.34
2022-08-10T08:48:07.162Z,101111.00
2022-08-10T08:50:57.319Z,101109.94
2022-08-10T08:54:01.613Z,101115.81
2022-08-10T08:56:43.262Z,101102.72
2022-08-10T08:59:29.606Z,101097.81
2022-08-10T09:02:14.404Z,101101.63
2022-08-10T09:05:08.029Z,101103.00
2022-08-10T09:08:02.265Z,101101.09
2022-08-10T09:10:40.802Z,101107.72
2022-08-10T09:13:15.189Z,101091.94
2022-08-10T09:15:51.671Z,101094.78
2022-08-10T09:18:25.131Z,101094.03
2022-08-10T09:21:00.476Z,101095.63
2022-08-10T09:24:04.479Z,101091.47
2022-08-10T09:26:32.612Z,101094.69
2022-08-10T09:29:12.619Z,101090.84
2022-08-10T09:32:55.984Z,101092.34
2022-08-10T09:36:25.756Z,101093.94
2022-08-10T09:38:01.319Z,101093.28
2022-08-10T09:40:59.563Z,101087.91
2022-08-10T09:43:43.418Z,101092.91
2022-08-10T09:46:27.198Z,101088.59
2022-08-10T09:49:06.575Z,101072.38
2022-08-10T09:51:47.123Z,101060.66
2022-08-10T09:54:36.477Z,101068.97
2022-08-10T09:57:45.100Z,101063.06
2022-08-10T10:00:17.190Z,101059.22
2022-08-10T10:02:58.954Z,101053.16
2022-08-10T10:05:35.995Z,101063.78
2022-08-10T10:08:12.015Z,101061.19
2022-08-10T10:10:47.506Z,101054.47
2022-08-10T10:14:01.586Z,101046.31
2022-08-10T10:16:42.940Z,101036.88
2022-08-10T10:19:25.772Z,101043.03
2022-08-10T10:22:04.552Z,101039.28
2022-08-10T10:24:41.190Z,101030.81
2022-08-10T10:27:21.799Z,101032.44
2022-08-10T10:29:59.558Z,101037.84
2022-08-10T10:32:38.965Z,101040.75
2022-08-10T10:35:22.475Z,101036.38
2022-08-10T10:38:01.004Z,101032.22
2022-08-10T10:40:36.453Z,101032.28
2022-08-10T10:43:12.479Z,101039.88
2022-08-10T10:45:58.991Z,101027.97
2022-08-10T10:48:39.926Z,101030.66
2022-08-10T10:51:15.056Z,101017.53
2022-08-10T10:53:50.816Z,101022.47
2022-08-10T10:56:36.545Z,101029.88
2022-08-10T10:59:55.621Z,101022.19
2022-08-10T11:02:24.960Z,101004.25
2022-08-10T11:05:06.032Z,101004.00
2022-08-10T11:07:39.317Z,101009.78
2022-08-10T11:10:32.044Z,101010.94
2022-08-10T11:14:25.673Z,100997.50
2022-08-10T11:16:21.629Z,101002.09
2022-08-10T11:19:00.426Z,100997.66
2022-08-10T11:21:46.640Z,101009.16
2022-08-10T11:24:47.492Z,101004.69
2022-08-10T11:27:21.829Z,101000.38
2022-08-10T11:29:59.032Z,101001.81
2022-08-10T11:32:38.870Z,100991.84
2022-08-10T11:35:18.786Z,100984.84
2022-08-10T11:38:34.660Z,100965.28
2022-08-10T11:40:48.904Z,100977.66
2022-08-10T11:43:21.906Z,100979.41
2022-08-10T11:46:02.941Z,100994.22
2022-08-10T11:48:53.180Z,100992.97
2022-08-10T11:51:31.091Z,100985.03
2022-08-10T11:54:05.449Z,100966.66
2022-08-10T11:56:42.570Z,100970.47
2022-08-10T11:59:29.278Z,100971.75
2022-08-10T12:01:59.089Z,100976.75
2022-08-10T12:04:28.927Z,100969.69
2022-08-10T12:07:00.241Z,100974.53
2022-08-10T12:10:09.787Z,100962.81
2022-08-10T12:12:19.420Z,100961.13
2022-08-10T12:14:56.358Z,100971.94
2022-08-10T12:17:30.030Z,100962.06
2022-08-10T12:20:07.705Z,100954.97
2022-08-10T12:22:44.328Z,100952.13
2022-08-10T12:25:54.813Z,100953.09
2022-08-10T12:28:12.078Z,100943.88
2022-08-10T12:30:47.997Z,100948.88
2022-08-10T12:33:24.045Z,100943.31
2022-08-10T12:36:19.295Z,100939.19
2022-08-10T12:38:58.898Z,100939.75
2022-08-10T12:41:45.096Z,100930.53
2022-08-10T12:44:19.190Z,100925.16
2022-08-10T12:46:55.959Z,100921.81
2022-08-10T12:49:33.342Z,100916.91
2022-08-10T12:52:07.965Z,100912.47
2022-08-10T12:54:39.174Z,100913.03
2022-08-10T12:57:11.693Z,100905.34
2022-08-10T12:59:43.914Z,100901.88
2022-08-10T13:02:19.827Z,100907.16
2022-08-10T13:04:51.331Z,100901.72
2022-08-10T13:08:24.677Z,100910.41
2022-08-10T13:10:18.545Z,100894.34
2022-08-10T13:12:50.410Z,100907.84
2022-08-10T13:15:45.516Z,100891.03
2022-08-10T13:18:18.057Z,100887.63
2022-08-10T13:20:51.923Z,100897.38
2022-08-10T13:23:24.908Z,100884.13
2022-08-10T13:25:57.869Z,100883.63
2022-08-10T13:28:35.425Z,100884.00
2022-08-10T13:31:11.683Z,100871.63
2022-08-10T13:34:39.448Z,100871.84
2022-08-10T13:36:40.539Z,100865.72
2022-08-10T13:39:09.634Z,100863.75
2022-08-10T13:41:43.416Z,100856.28
2022-08-10T13:44:15.432Z,100846.47
2022-08-10T13:46:51.009Z,100855.66
2022-08-10T13:49:21.478Z,100852.09
2022-08-10T13:51:53.674Z,100851.75
2022-08-10T13:54:29.608Z,100863.97
2022-08-10T13:57:00.180Z,100849.59
2022-08-10T14:00:36.850Z,100855.00
2022-08-10T14:02:29.665Z,100848.91
2022-08-10T14:04:59.643Z,100844.16
2022-08-10T14:07:28.852Z,100846.53
2022-08-10T14:10:07.013Z,100847.78
2022-08-10T14:12:39.856Z,100841.44
2022-08-10T14:15:10.775Z,100834.94
2022-08-10T14:17:44.702Z,100833.69
2022-08-10T14:20:19.289Z,100830.31
2022-08-10T14:22:49.503Z,100818.06
2022-08-10T14:25:17.497Z,100816.31
2022-08-10T14:28:03.656Z,100814.69
2022-08-10T14:30:34.210Z,100812.81
2022-08-10T14:33:04.882Z,100824.84
2022-08-10T14:36:22.035Z,100817.91
2022-08-10T14:38:30.032Z,100819.88
2022-08-10T14:41:01.240Z,100824.16
2022-08-10T14:43:36.100Z,100817.13
2022-08-10T14:46:06.955Z,100823.78
2022-08-10T14:48:40.783Z,100812.75
2022-08-10T14:51:10.200Z,100815.50
2022-08-10T14:53:41.256Z,100813.75
2022-08-10T14:56:13.646Z,100815.78
2022-08-10T14:59:05.485Z,100808.72
2022-08-10T15:02:00.993Z,100803.72
2022-08-10T15:04:28.467Z,100805.84
2022-08-10T15:07:01.269Z,100797.44
2022-08-10T15:10:00.335Z,100802.06
2022-08-10T15:12:26.642Z,100800.28
2022-08-10T15:15:01.245Z,100798.63
2022-08-10T15:17:35.122Z,100800.69
2022-08-10T15:20:13.629Z,100791.75
2022-08-10T15:22:50.079Z,100791.09
2022-08-10T15:25:24.271Z,100793.19
2022-08-10T15:27:57.896Z,100786.63
2022-08-10T15:30:41.210Z,100790.91
2022-08-10T15:34:03.612Z,100789.97
2022-08-10T15:36:37.563Z,100785.84
2022-08-10T15:39:17.308Z,100780.69
2022-08-10T15:42:02.006Z,100780.22
2022-08-10T15:44:39.545Z,100785.72
2022-08-10T15:47:15.519Z,100781.94
2022-08-10T15:49:51.712Z,100775.63
2022-08-10T15:52:39.719Z,100773.94
2022-08-10T15:55:42.364Z,100775.63
2022-08-10T15:58:10.484Z,100774.28
2022-08-10T16:00:45.259Z,100767.22
2022-08-10T16:03:23.770Z,100759.28
2022-08-10T16:06:02.052Z,100757.88
2022-08-10T16:08:56.405Z,100751.97
2022-08-10T16:11:38.314Z,100755.63
2022-08-10T16:14:10.951Z,100764.09
2022-08-10T16:16:40.198Z,100758.16
2022-08-10T16:19:22.527Z,100751.94
2022-08-10T16:22:00.494Z,100753.00
2022-08-10T16:24:34.688Z,100760.88
2022-08-10T16:27:07.635Z,100756.22
2022-08-10T16:29:56.094Z,100743.94
2022-08-10T16:32:26.553Z,100740.69
2022-08-10T16:34:57.508Z,100742.25
2022-08-10T16:37:56.548Z,100741.34
2022-08-10T16:40:22.064Z,100742.47
2022-08-10T16:42:51.518Z,100743.19
2022-08-10T16:45:26.484Z,100743.28
2022-08-10T16:47:57.586Z,100737.72
2022-08-10T16:50:33.727Z,100738.75
2022-08-10T16:53:06.204Z,100734.81
2022-08-10T16:55:49.163Z,100737.44
2022-08-10T16:58:22.212Z,100735.03
2022-08-10T17:00:52.203Z,100730.03
2022-08-10T17:04:06.734Z,100737.34
2022-08-10T17:06:22.409Z,100736.88
2022-08-10T17:08:54.097Z,100727.44
2022-08-10T17:11:24.647Z,100729.81
2022-08-10T17:13:57.500Z,100738.25
2022-08-10T17:16:27.401Z,100737.88
2022-08-10T17:18:57.771Z,100735.59
2022-08-10T17:21:31.804Z,100734.66
2022-08-10T17:24:04.688Z,100738.22
2022-08-10T17:26:37.455Z,100740.09
2022-08-10T17:29:53.725Z,100738.53
2022-08-10T17:32:07.559Z,100734.88
2022-08-10T17:34:39.537Z,100735.00
2022-08-10T17:37:22.102Z,100734.69
2022-08-10T17:39:58.935Z,100730.09
2022-08-10T17:42:29.281Z,100736.63
2022-08-10T17:44:59.110Z,100724.56
2022-08-10T17:47:28.200Z,100727.22
2022-08-10T17:49:57.685Z,100733.59
2022-08-10T17:52:33.128Z,100732.94
2022-08-10T17:55:04.929Z,100730.47
2022-08-10T17:57:37.998Z,100730.91
2022-08-10T18:00:10.724Z,100733.00
2022-08-10T18:02:41.904Z,100737.53
2022-08-10T18:05:12.572Z,100726.97
2022-08-10T18:07:52.814Z,100732.91
2022-08-10T18:10:22.983Z,100732.59
2022-08-10T18:12:55.249Z,100733.78
2022-08-10T18:15:29.552Z,100735.78
2022-08-10T18:18:00.700Z,100731.25
2022-08-10T18:20:35.246Z,100736.78
2022-08-10T18:23:07.569Z,100737.59
2022-08-10T18:25:39.827Z,100731.09
2022-08-10T18:28:11.770Z,100742.44
2022-08-10T18:30:48.237Z,100739.88
2022-08-10T18:33:18.357Z,100742.00
2022-08-10T18:35:47.346Z,100746.34
2022-08-10T18:38:20.004Z,100741.97
2022-08-10T18:40:54.687Z,100743.31
2022-08-10T18:44:07.238Z,100745.41
2022-08-10T18:46:24.430Z,100751.03
2022-08-10T18:48:55.247Z,100743.91
2022-08-10T18:51:26.652Z,100748.53
2022-08-10T18:54:01.929Z,100744.84
2022-08-10T18:56:49.242Z,100753.19
2022-08-10T18:59:42.539Z,100749.41
2022-08-10T19:02:51.558Z,100753.34
2022-08-10T19:05:36.565Z,100745.81
2022-08-10T19:08:30.458Z,100762.22
2022-08-10T19:11:07.538Z,100752.97
2022-08-10T19:13:56.446Z,100763.66
2022-08-10T19:16:35.807Z,100768.91
2022-08-10T19:19:22.697Z,100765.19
2022-08-10T19:22:03.645Z,100770.28
2022-08-10T19:24:47.066Z,100774.25
2022-08-10T19:27:30.753Z,100779.34
2022-08-10T19:30:11.406Z,100773.81
2022-08-10T19:33:20.586Z,100778.03
2022-08-10T19:36:05.384Z,100775.00
2022-08-10T19:38:49.385Z,100770.69
2022-08-10T19:41:30.875Z,100775.16
2022-08-10T19:44:10.683Z,100774.19
2022-08-10T19:46:43.610Z,100775.16
2022-08-10T19:49:23.336Z,100774.50
2022-08-10T19:51:58.030Z,100777.59
2022-08-10T19:54:37.277Z,100774.84
2022-08-10T19:57:14.692Z,100776.38
2022-08-10T20:00:15.846Z,100779.25
2022-08-10T20:02:51.988Z,100783.59
2022-08-10T20:05:29.508Z,100785.28
2022-08-10T20:08:04.277Z,100773.91
2022-08-10T20:10:41.491Z,100784.63
2022-08-10T20:13:15.853Z,100774.44
2022-08-10T20:15:52.827Z,100779.22
2022-08-10T20:18:27.459Z,100784.66
2022-08-10T20:21:02.406Z,100783.06
2022-08-10T20:23:36.825Z,100783.88
2022-08-10T20:26:18.131Z,100791.16
2022-08-10T20:28:59.353Z,100774.06
2022-08-10T20:31:44.326Z,100784.31
2022-08-10T20:34:21.482Z,100785.69
2022-08-10T20:36:58.718Z,100782.50
2022-08-10T20:39:42.599Z,100781.41
2022-08-10T20:42:19.173Z,100785.72
2022-08-10T20:44:54.570Z,100783.34
2022-08-10T20:47:38.555Z,100781.28
2022-08-10T20:50:30.931Z,100779.75
2022-08-10T20:53:07.876Z,100780.03
2022-08-10T20:55:53.862Z,100781.47
2022-08-10T20:58:45.229Z,100781.06
2022-08-10T21:01:17.540Z,100778.09
2022-08-10T21:04:03.926Z,100776.28
2022-08-10T21:06:46.233Z,100777.56
2022-08-10T21:09:34.965Z,100780.94
2022-08-10T21:12:22.431Z,100780.81
2022-08-10T21:14:56.898Z,100779.53
2022-08-10T21:17:49.992Z,100775.06
2022-08-10T21:20:47.496Z,100776.59
2022-08-10T21:23:30.600Z,100774.91
2022-08-10T21:26:08.781Z,100773.50
2022-08-10T21:29:06.747Z,100777.84
2022-08-10T21:31:57.563Z,100778.84
2022-08-10T21:34:40.943Z,100778.41
2022-08-10T21:37:56.494Z,100777.31
2022-08-10T21:40:34.669Z,100777.19
2022-08-10T21:43:44.649Z,100774.34
2022-08-10T21:46:54.694Z,100773.81
2022-08-10T21:49:52.547Z,100775.91
2022-08-10T21:52:53.641Z,100781.63
2022-08-10T21:55:57.564Z,100777.72
2022-08-10T21:58:48.851Z,100787.06
2022-08-10T22:01:41.952Z,100781.06
2022-08-10T22:04:29.296Z,100776.56
2022-08-10T22:07:19.320Z,100785.25
2022-08-10T22:10:10.861Z,100770.50
2022-08-10T22:13:00.634Z,100780.09
2022-08-10T22:16:09.875Z,100784.28
2022-08-10T22:19:02.210Z,100780.88
2022-08-10T22:21:59.534Z,100787.03
2022-08-10T22:25:04.089Z,100796.50
2022-08-10T22:27:55.122Z,100792.50
2022-08-10T22:31:26.218Z,100789.56
2022-08-10T22:34:00.414Z,100790.06
2022-08-10T22:37:03.356Z,100790.91
2022-08-10T22:40:12.675Z,100790.69
2022-08-10T22:43:10.923Z,100794.72
2022-08-10T22:46:05.811Z,100794.81
2022-08-10T22:48:59.249Z,100799.88
2022-08-10T22:51:39.243Z,100796.69
2022-08-10T22:54:32.159Z,100801.81
2022-08-10T22:57:20.291Z,100794.13
2022-08-10T22:59:50.886Z,100804.88
2022-08-10T23:02:29.378Z,100812.75
2022-08-10T23:05:03.038Z,100801.28
2022-08-10T23:07:35.521Z,100794.84
2022-08-10T23:10:08.487Z,100796.28
2022-08-10T23:12:52.838Z,100794.06
2022-08-10T23:15:44.206Z,100791.28
2022-08-10T23:18:36.777Z,100801.13
2022-08-10T23:21:07.538Z,100796.50
2022-08-10T23:23:40.491Z,100794.06
2022-08-10T23:26:12.740Z,100806.22
2022-08-10T23:28:58.143Z,100800.66
2022-08-10T23:32:01.241Z,100792.56
2022-08-10T23:34:25.253Z,100800.84
2022-08-10T23:36:55.393Z,100799.88
2022-08-10T23:39:32.522Z,100799.09
2022-08-10T23:42:07.429Z,100795.47
2022-08-10T23:44:43.574Z,100809.13
2022-08-10T23:47:18.509Z,100806.41
2022-08-10T23:49:48.932Z,100804.03
2022-08-10T23:52:20.062Z,100809.38
2022-08-10T23:54:51.694Z,100798.56
2022-08-10T23:57:22.655Z,100807.06
2022-08-10T23:59:58.088Z,100805.72
